Hlavní strana
METAR-TAF:

METAR-TAF

Letiště :

In Salah, Alžírsko

zeměpisná šířka: 27-15N, zeměpisná délka: 002-31E, výška: 269 m

Aktuální stav počasí

Zpráva byla vytvořena před 27 minutami, v 19:00 UTC
Východoseverovýchodní vítr 15 kt
Teplota 28°C
Tlak 1016 hPa
Viditelnost: 9000 m

METAR: DAUI 061900Z 06015KT 9000 NSC 28/// Q1016

Čas: 20:27 (19:27 UTC)

Předpověď počasí

Zpráva byla vytvořena před 2 hodinami a 27 minutami, v 17:00 UTC
Předpověď platná od 06 v 18 UTC do 07 v 18 UTC
Východoseverovýchodní vítr 18 kt
Viditelnost: 8000 m
Pravděpodobnost 30%
od 06 v 18 UTC do 06 v 24 UTC
Viditelnost: 4000 m
nízko zvířený písek
Pravděpodobnost 40%
od 07 v 08 UTC do 07 v 14 UTC
Východoseverovýchodní vítr 24 kt
Viditelnost: 3000 m
nízko zvířený písek

TAF: DAUI 061700Z 0618/0718 06018KT 8000 NSC PROB30 0618/0624 4000 DRSA PROB40 0708/0714 06024KT 3000 DRSA

Stav a předpovědi počasí z více než 4 000 letišť (zprávy METAR a TAF).

Červené a žluté tečky na mapě představují dostupné meteorologické stanice.

Když kurzor umístíte na tečku, zobrazí se název stanice.

Pak kliknutím zobrazíte stav a předpověď počasí.

Chcete-li změnit mapu, kliknutím na zelené tlačítko se znaménkem +mapu přiblížíte, kliknutím na zelené tlačítko se znaménkem – mapu oddálíte a kliknutím na zelené šipky přejdete na sousední mapy.


METAR-TAF: